Terminal Aerodrome Forecast
Issued by NWS Buffalo, NY

Home | Current Version | Previous Version | Text Only | Print | Product List | Glossary On
Versions: 1 2 3 4 5 6 7 8 9 10 11 12 13 14 15 16 17 18 19 20 21 22 23 24 25 26 27 28
221
FTUS41 KBUF 212336
TAFROC
TAF
KROC 212336Z 2200/2224 09004KT P6SM BKN080
     FM220500 VRB03KT 2SM BR OVC009
      TEMPO 2205/2209 1/2SM FG OVC005
     FM221500 VRB03KT P6SM OVC020
     FM221900 08007KT P6SM OVC007=

USA.gov is the U.S. government's official web portal to all federal, state and local government web resources and services.